sensor_id;sensor_type;location;lat;lon;timestamp;P1;durP1;ratioP1;P2;durP2;ratioP2
40254;SDS011;25973;52.368;4.940;2023-03-01T00:01:22;16.92;;;8.25;;
40254;SDS011;25973;52.368;4.940;2023-03-01T00:03:50;12.77;;;6.25;;
40254;SDS011;25973;52.368;4.940;2023-03-01T00:06:17;19.65;;;7.03;;
40254;SDS011;25973;52.368;4.940;2023-03-01T00:08:43;14.15;;;7.00;;
40254;SDS011;25973;52.368;4.940;2023-03-01T00:11:13;14.07;;;7.55;;
40254;SDS011;25973;52.368;4.940;2023-03-01T00:13:42;12.25;;;7.15;;
40254;SDS011;25973;52.368;4.940;2023-03-01T00:16:13;13.88;;;7.28;;
40254;SDS011;25973;52.368;4.940;2023-03-01T00:18:43;12.25;;;6.32;;
40254;SDS011;25973;52.368;4.940;2023-03-01T00:21:09;12.30;;;6.70;;
40254;SDS011;25973;52.368;4.940;2023-03-01T00:23:35;12.32;;;6.07;;
40254;SDS011;25973;52.368;4.940;2023-03-01T00:26:01;17.50;;;7.57;;
40254;SDS011;25973;52.368;4.940;2023-03-01T00:28:31;16.52;;;6.55;;
40254;SDS011;25973;52.368;4.940;2023-03-01T00:31:01;16.25;;;8.23;;
40254;SDS011;25973;52.368;4.940;2023-03-01T00:33:28;17.23;;;8.40;;
40254;SDS011;25973;52.368;4.940;2023-03-01T00:35:54;20.45;;;9.93;;
40254;SDS011;25973;52.368;4.940;2023-03-01T00:38:19;25.98;;;12.30;;
40254;SDS011;25973;52.368;4.940;2023-03-01T00:40:45;17.05;;;8.13;;
40254;SDS011;25973;52.368;4.940;2023-03-01T00:43:10;13.65;;;6.82;;
40254;SDS011;25973;52.368;4.940;2023-03-01T00:45:36;14.52;;;7.38;;
40254;SDS011;25973;52.368;4.940;2023-03-01T00:48:01;14.75;;;6.85;;
40254;SDS011;25973;52.368;4.940;2023-03-01T00:50:27;12.25;;;7.65;;
40254;SDS011;25973;52.368;4.940;2023-03-01T00:52:53;13.73;;;7.68;;
40254;SDS011;25973;52.368;4.940;2023-03-01T00:55:20;17.67;;;8.35;;
40254;SDS011;25973;52.368;4.940;2023-03-01T00:57:45;15.13;;;7.65;;
40254;SDS011;25973;52.368;4.940;2023-03-01T01:00:11;15.35;;;7.13;;
40254;SDS011;25973;52.368;4.940;2023-03-01T01:02:37;16.55;;;7.72;;
40254;SDS011;25973;52.368;4.940;2023-03-01T01:05:03;15.27;;;7.00;;
40254;SDS011;25973;52.368;4.940;2023-03-01T01:07:29;12.73;;;8.02;;
40254;SDS011;25973;52.368;4.940;2023-03-01T01:09:55;11.82;;;6.97;;
40254;SDS011;25973;52.368;4.940;2023-03-01T01:12:20;14.85;;;7.38;;
40254;SDS011;25973;52.368;4.940;2023-03-01T01:14:46;14.35;;;7.80;;
40254;SDS011;25973;52.368;4.940;2023-03-01T01:17:12;11.98;;;6.47;;
40254;SDS011;25973;52.368;4.940;2023-03-01T01:19:37;23.92;;;11.73;;
40254;SDS011;25973;52.368;4.940;2023-03-01T01:22:03;19.30;;;10.57;;
40254;SDS011;25973;52.368;4.940;2023-03-01T01:24:29;23.48;;;12.57;;
40254;SDS011;25973;52.368;4.940;2023-03-01T01:26:54;16.02;;;7.55;;
40254;SDS011;25973;52.368;4.940;2023-03-01T01:29:20;16.70;;;7.68;;
40254;SDS011;25973;52.368;4.940;2023-03-01T01:31:46;21.15;;;8.90;;
40254;SDS011;25973;52.368;4.940;2023-03-01T01:34:16;13.52;;;7.05;;
40254;SDS011;25973;52.368;4.940;2023-03-01T01:36:47;14.02;;;7.85;;
40254;SDS011;25973;52.368;4.940;2023-03-01T01:39:13;18.42;;;7.70;;
40254;SDS011;25973;52.368;4.940;2023-03-01T01:41:40;15.77;;;8.52;;
40254;SDS011;25973;52.368;4.940;2023-03-01T01:46:48;18.58;;;9.25;;
40254;SDS011;25973;52.368;4.940;2023-03-01T01:49:23;15.82;;;7.78;;
40254;SDS011;25973;52.368;4.940;2023-03-01T01:51:55;16.45;;;8.32;;
40254;SDS011;25973;52.368;4.940;2023-03-01T01:54:31;18.30;;;8.05;;
40254;SDS011;25973;52.368;4.940;2023-03-01T01:57:15;15.98;;;8.20;;
40254;SDS011;25973;52.368;4.940;2023-03-01T01:59:45;16.70;;;8.88;;
40254;SDS011;25973;52.368;4.940;2023-03-01T02:02:19;18.30;;;8.32;;
40254;SDS011;25973;52.368;4.940;2023-03-01T02:04:46;19.55;;;9.48;;
40254;SDS011;25973;52.368;4.940;2023-03-01T02:07:15;18.27;;;9.35;;
40254;SDS011;25973;52.368;4.940;2023-03-01T02:09:45;16.42;;;9.55;;
40254;SDS011;25973;52.368;4.940;2023-03-01T02:12:13;23.88;;;10.57;;
40254;SDS011;25973;52.368;4.940;2023-03-01T02:14:40;27.35;;;11.48;;
40254;SDS011;25973;52.368;4.940;2023-03-01T02:17:06;17.90;;;10.05;;
40254;SDS011;25973;52.368;4.940;2023-03-01T02:19:50;18.55;;;9.30;;
40254;SDS011;25973;52.368;4.940;2023-03-01T02:22:24;14.45;;;7.97;;
40254;SDS011;25973;52.368;4.940;2023-03-01T02:27:29;18.25;;;10.05;;
40254;SDS011;25973;52.368;4.940;2023-03-01T02:30:22;20.67;;;8.35;;
40254;SDS011;25973;52.368;4.940;2023-03-01T02:32:51;18.85;;;9.45;;
40254;SDS011;25973;52.368;4.940;2023-03-01T02:35:19;16.20;;;8.15;;
40254;SDS011;25973;52.368;4.940;2023-03-01T02:37:45;17.00;;;9.35;;
40254;SDS011;25973;52.368;4.940;2023-03-01T02:40:14;20.40;;;9.57;;
40254;SDS011;25973;52.368;4.940;2023-03-01T02:42:55;18.33;;;9.20;;
40254;SDS011;25973;52.368;4.940;2023-03-01T02:45:22;18.65;;;9.57;;
40254;SDS011;25973;52.368;4.940;2023-03-01T02:47:48;17.05;;;8.48;;
40254;SDS011;25973;52.368;4.940;2023-03-01T02:53:03;18.27;;;9.60;;
40254;SDS011;25973;52.368;4.940;2023-03-01T02:55:36;18.75;;;9.73;;
40254;SDS011;25973;52.368;4.940;2023-03-01T02:58:02;18.65;;;8.95;;
40254;SDS011;25973;52.368;4.940;2023-03-01T03:00:28;17.23;;;9.20;;
40254;SDS011;25973;52.368;4.940;2023-03-01T03:03:00;20.55;;;8.50;;
40254;SDS011;25973;52.368;4.940;2023-03-01T03:05:27;24.58;;;9.25;;
40254;SDS011;25973;52.368;4.940;2023-03-01T03:07:54;16.48;;;9.32;;
40254;SDS011;25973;52.368;4.940;2023-03-01T03:10:22;24.45;;;10.75;;
40254;SDS011;25973;52.368;4.940;2023-03-01T03:12:53;18.35;;;9.52;;
40254;SDS011;25973;52.368;4.940;2023-03-01T03:15:21;17.17;;;9.50;;
40254;SDS011;25973;52.368;4.940;2023-03-01T03:17:47;21.70;;;9.38;;
40254;SDS011;25973;52.368;4.940;2023-03-01T03:20:15;17.98;;;9.23;;
40254;SDS011;25973;52.368;4.940;2023-03-01T03:22:44;18.25;;;9.65;;
40254;SDS011;25973;52.368;4.940;2023-03-01T03:25:11;16.13;;;9.23;;
40254;SDS011;25973;52.368;4.940;2023-03-01T03:27:38;19.00;;;9.30;;
40254;SDS011;25973;52.368;4.940;2023-03-01T03:30:06;19.98;;;10.23;;
40254;SDS011;25973;52.368;4.940;2023-03-01T03:32:37;17.02;;;9.10;;
40254;SDS011;25973;52.368;4.940;2023-03-01T03:35:04;18.80;;;9.90;;
40254;SDS011;25973;52.368;4.940;2023-03-01T03:37:35;18.50;;;9.63;;
40254;SDS011;25973;52.368;4.940;2023-03-01T03:40:20;18.30;;;8.73;;
40254;SDS011;25973;52.368;4.940;2023-03-01T03:42:46;17.35;;;9.40;;
40254;SDS011;25973;52.368;4.940;2023-03-01T03:45:11;17.45;;;8.85;;
40254;SDS011;25973;52.368;4.940;2023-03-01T03:47:37;18.10;;;8.52;;
40254;SDS011;25973;52.368;4.940;2023-03-01T03:50:02;18.13;;;8.88;;
40254;SDS011;25973;52.368;4.940;2023-03-01T03:52:28;18.95;;;9.35;;
40254;SDS011;25973;52.368;4.940;2023-03-01T03:54:53;15.98;;;9.02;;
40254;SDS011;25973;52.368;4.940;2023-03-01T03:57:19;24.30;;;9.60;;
40254;SDS011;25973;52.368;4.940;2023-03-01T03:59:46;17.02;;;9.50;;
40254;SDS011;25973;52.368;4.940;2023-03-01T04:02:11;15.27;;;8.57;;
40254;SDS011;25973;52.368;4.940;2023-03-01T04:04:37;19.75;;;10.60;;
40254;SDS011;25973;52.368;4.940;2023-03-01T04:07:02;16.05;;;8.80;;
40254;SDS011;25973;52.368;4.940;2023-03-01T04:09:28;23.63;;;9.88;;
40254;SDS011;25973;52.368;4.940;2023-03-01T04:11:55;18.55;;;8.90;;
40254;SDS011;25973;52.368;4.940;2023-03-01T04:14:20;16.60;;;8.40;;
40254;SDS011;25973;52.368;4.940;2023-03-01T04:16:46;17.20;;;8.70;;
40254;SDS011;25973;52.368;4.940;2023-03-01T04:19:12;18.27;;;9.43;;
40254;SDS011;25973;52.368;4.940;2023-03-01T04:21:37;18.80;;;9.73;;
40254;SDS011;25973;52.368;4.940;2023-03-01T04:24:03;16.98;;;9.32;;
40254;SDS011;25973;52.368;4.940;2023-03-01T04:26:29;18.15;;;8.98;;
40254;SDS011;25973;52.368;4.940;2023-03-01T04:28:54;16.75;;;9.20;;
40254;SDS011;25973;52.368;4.940;2023-03-01T04:31:20;18.13;;;8.65;;
40254;SDS011;25973;52.368;4.940;2023-03-01T04:33:52;16.88;;;8.98;;
40254;SDS011;25973;52.368;4.940;2023-03-01T04:36:21;17.75;;;9.98;;
40254;SDS011;25973;52.368;4.940;2023-03-01T04:38:49;19.63;;;8.93;;
40254;SDS011;25973;52.368;4.940;2023-03-01T04:41:16;18.25;;;10.15;;
40254;SDS011;25973;52.368;4.940;2023-03-01T04:43:43;18.35;;;9.05;;
40254;SDS011;25973;52.368;4.940;2023-03-01T04:46:10;15.98;;;8.30;;
40254;SDS011;25973;52.368;4.940;2023-03-01T04:48:38;19.10;;;8.50;;
40254;SDS011;25973;52.368;4.940;2023-03-01T04:51:05;16.67;;;8.48;;
40254;SDS011;25973;52.368;4.940;2023-03-01T04:53:31;18.45;;;8.80;;
40254;SDS011;25973;52.368;4.940;2023-03-01T04:55:57;17.48;;;8.68;;
40254;SDS011;25973;52.368;4.940;2023-03-01T04:58:25;15.85;;;8.07;;
40254;SDS011;25973;52.368;4.940;2023-03-01T05:00:51;20.42;;;9.93;;
40254;SDS011;25973;52.368;4.940;2023-03-01T05:03:17;19.70;;;9.27;;
40254;SDS011;25973;52.368;4.940;2023-03-01T05:05:43;26.70;;;9.43;;
40254;SDS011;25973;52.368;4.940;2023-03-01T05:08:10;18.40;;;9.43;;
40254;SDS011;25973;52.368;4.940;2023-03-01T05:10:47;16.98;;;9.02;;
40254;SDS011;25973;52.368;4.940;2023-03-01T05:13:15;18.25;;;9.65;;
40254;SDS011;25973;52.368;4.940;2023-03-01T05:15:46;16.35;;;8.80;;
40254;SDS011;25973;52.368;4.940;2023-03-01T05:18:23;18.85;;;9.20;;
40254;SDS011;25973;52.368;4.940;2023-03-01T05:20:50;22.60;;;9.85;;
40254;SDS011;25973;52.368;4.940;2023-03-01T05:23:17;19.45;;;9.75;;
40254;SDS011;25973;52.368;4.940;2023-03-01T05:25:43;16.92;;;9.23;;
40254;SDS011;25973;52.368;4.940;2023-03-01T05:28:11;19.52;;;10.15;;
40254;SDS011;25973;52.368;4.940;2023-03-01T05:30:37;21.35;;;10.23;;
40254;SDS011;25973;52.368;4.940;2023-03-01T05:33:04;22.15;;;11.63;;
40254;SDS011;25973;52.368;4.940;2023-03-01T05:35:32;23.77;;;11.48;;
40254;SDS011;25973;52.368;4.940;2023-03-01T05:37:58;19.92;;;10.63;;
40254;SDS011;25973;52.368;4.940;2023-03-01T05:40:24;19.38;;;8.55;;
40254;SDS011;25973;52.368;4.940;2023-03-01T05:42:52;18.80;;;9.25;;
40254;SDS011;25973;52.368;4.940;2023-03-01T05:45:20;23.20;;;9.45;;
40254;SDS011;25973;52.368;4.940;2023-03-01T05:47:47;22.38;;;9.10;;
40254;SDS011;25973;52.368;4.940;2023-03-01T05:50:14;21.25;;;11.18;;
40254;SDS011;25973;52.368;4.940;2023-03-01T05:52:44;17.27;;;10.23;;
40254;SDS011;25973;52.368;4.940;2023-03-01T05:55:10;17.00;;;9.15;;
40254;SDS011;25973;52.368;4.940;2023-03-01T05:57:36;26.30;;;9.88;;
40254;SDS011;25973;52.368;4.940;2023-03-01T06:00:02;19.98;;;10.35;;
40254;SDS011;25973;52.368;4.940;2023-03-01T06:02:28;19.25;;;9.63;;
40254;SDS011;25973;52.368;4.940;2023-03-01T06:04:54;22.90;;;10.65;;
40254;SDS011;25973;52.368;4.940;2023-03-01T06:07:20;20.35;;;9.73;;
40254;SDS011;25973;52.368;4.940;2023-03-01T06:09:46;21.92;;;11.15;;
40254;SDS011;25973;52.368;4.940;2023-03-01T06:12:11;23.73;;;11.15;;
40254;SDS011;25973;52.368;4.940;2023-03-01T06:14:37;23.20;;;10.93;;
40254;SDS011;25973;52.368;4.940;2023-03-01T06:17:02;22.50;;;10.90;;
40254;SDS011;25973;52.368;4.940;2023-03-01T06:19:28;23.33;;;11.02;;
40254;SDS011;25973;52.368;4.940;2023-03-01T06:21:54;22.33;;;10.10;;
40254;SDS011;25973;52.368;4.940;2023-03-01T06:24:19;21.95;;;11.45;;
40254;SDS011;25973;52.368;4.940;2023-03-01T06:26:45;25.65;;;10.85;;
40254;SDS011;25973;52.368;4.940;2023-03-01T06:29:10;20.65;;;10.57;;
40254;SDS011;25973;52.368;4.940;2023-03-01T06:31:36;22.80;;;11.10;;
40254;SDS011;25973;52.368;4.940;2023-03-01T06:34:02;22.15;;;10.68;;
40254;SDS011;25973;52.368;4.940;2023-03-01T06:36:27;24.13;;;11.40;;
40254;SDS011;25973;52.368;4.940;2023-03-01T06:38:53;25.77;;;11.38;;
40254;SDS011;25973;52.368;4.940;2023-03-01T06:41:18;24.50;;;12.70;;
40254;SDS011;25973;52.368;4.940;2023-03-01T06:43:44;25.10;;;12.10;;
40254;SDS011;25973;52.368;4.940;2023-03-01T06:46:09;24.75;;;12.95;;
40254;SDS011;25973;52.368;4.940;2023-03-01T06:48:35;23.27;;;9.93;;
40254;SDS011;25973;52.368;4.940;2023-03-01T06:51:01;22.35;;;11.05;;
40254;SDS011;25973;52.368;4.940;2023-03-01T06:53:29;22.92;;;10.98;;
40254;SDS011;25973;52.368;4.940;2023-03-01T06:55:55;23.55;;;10.77;;
40254;SDS011;25973;52.368;4.940;2023-03-01T06:58:21;36.65;;;10.65;;
40254;SDS011;25973;52.368;4.940;2023-03-01T07:00:47;41.40;;;11.32;;
40254;SDS011;25973;52.368;4.940;2023-03-01T07:03:12;26.90;;;10.57;;
40254;SDS011;25973;52.368;4.940;2023-03-01T07:05:38;23.27;;;10.00;;
40254;SDS011;25973;52.368;4.940;2023-03-01T07:08:04;21.70;;;8.82;;
40254;SDS011;25973;52.368;4.940;2023-03-01T07:10:29;36.72;;;9.35;;
40254;SDS011;25973;52.368;4.940;2023-03-01T07:12:58;37.05;;;10.45;;
40254;SDS011;25973;52.368;4.940;2023-03-01T07:15:24;25.35;;;8.82;;
40254;SDS011;25973;52.368;4.940;2023-03-01T07:17:50;36.20;;;8.75;;
40254;SDS011;25973;52.368;4.940;2023-03-01T07:20:17;28.48;;;8.38;;
40254;SDS011;25973;52.368;4.940;2023-03-01T07:22:43;38.78;;;7.43;;
40254;SDS011;25973;52.368;4.940;2023-03-01T07:25:09;30.88;;;7.95;;
40254;SDS011;25973;52.368;4.940;2023-03-01T07:27:36;20.95;;;7.25;;
40254;SDS011;25973;52.368;4.940;2023-03-01T07:30:02;28.95;;;8.68;;
40254;SDS011;25973;52.368;4.940;2023-03-01T07:32:28;21.35;;;7.90;;
40254;SDS011;25973;52.368;4.940;2023-03-01T07:34:54;28.25;;;9.05;;
40254;SDS011;25973;52.368;4.940;2023-03-01T07:37:19;18.25;;;8.15;;
40254;SDS011;25973;52.368;4.940;2023-03-01T07:39:45;20.27;;;7.45;;
40254;SDS011;25973;52.368;4.940;2023-03-01T07:42:10;14.70;;;7.78;;
40254;SDS011;25973;52.368;4.940;2023-03-01T07:44:36;27.48;;;8.15;;
40254;SDS011;25973;52.368;4.940;2023-03-01T07:47:02;15.02;;;7.60;;
40254;SDS011;25973;52.368;4.940;2023-03-01T07:49:28;23.95;;;9.82;;
40254;SDS011;25973;52.368;4.940;2023-03-01T07:51:54;21.85;;;12.02;;
40254;SDS011;25973;52.368;4.940;2023-03-01T07:54:20;18.20;;;9.15;;
40254;SDS011;25973;52.368;4.940;2023-03-01T07:56:46;19.35;;;8.18;;
40254;SDS011;25973;52.368;4.940;2023-03-01T07:59:11;17.33;;;8.65;;
40254;SDS011;25973;52.368;4.940;2023-03-01T08:01:37;15.07;;;9.50;;
40254;SDS011;25973;52.368;4.940;2023-03-01T08:04:02;16.13;;;8.52;;
40254;SDS011;25973;52.368;4.940;2023-03-01T08:06:31;24.98;;;8.48;;
40254;SDS011;25973;52.368;4.940;2023-03-01T08:08:59;21.13;;;8.43;;
40254;SDS011;25973;52.368;4.940;2023-03-01T08:11:25;50.00;;;8.55;;
40254;SDS011;25973;52.368;4.940;2023-03-01T08:13:53;34.72;;;10.27;;
40254;SDS011;25973;52.368;4.940;2023-03-01T08:16:18;24.30;;;9.10;;
40254;SDS011;25973;52.368;4.940;2023-03-01T08:18:44;23.88;;;10.02;;
40254;SDS011;25973;52.368;4.940;2023-03-01T08:21:11;30.45;;;7.90;;
40254;SDS011;25973;52.368;4.940;2023-03-01T08:23:39;28.85;;;8.13;;
40254;SDS011;25973;52.368;4.940;2023-03-01T08:26:06;31.75;;;9.05;;
40254;SDS011;25973;52.368;4.940;2023-03-01T08:28:38;39.38;;;8.85;;
40254;SDS011;25973;52.368;4.940;2023-03-01T08:33:51;25.25;;;8.98;;
40254;SDS011;25973;52.368;4.940;2023-03-01T08:36:25;39.95;;;8.20;;
40254;SDS011;25973;52.368;4.940;2023-03-01T08:39:02;17.55;;;7.63;;
40254;SDS011;25973;52.368;4.940;2023-03-01T08:41:28;33.33;;;7.88;;
40254;SDS011;25973;52.368;4.940;2023-03-01T08:43:54;29.75;;;8.82;;
40254;SDS011;25973;52.368;4.940;2023-03-01T08:46:27;34.92;;;9.60;;
40254;SDS011;25973;52.368;4.940;2023-03-01T08:48:53;25.05;;;9.70;;
40254;SDS011;25973;52.368;4.940;2023-03-01T08:51:19;31.23;;;8.63;;
40254;SDS011;25973;52.368;4.940;2023-03-01T08:53:46;39.03;;;9.90;;
40254;SDS011;25973;52.368;4.940;2023-03-01T08:56:12;21.00;;;8.32;;
40254;SDS011;25973;52.368;4.940;2023-03-01T08:58:38;22.10;;;8.30;;
40254;SDS011;25973;52.368;4.940;2023-03-01T09:01:07;33.45;;;8.90;;
40254;SDS011;25973;52.368;4.940;2023-03-01T09:03:36;23.55;;;9.50;;
40254;SDS011;25973;52.368;4.940;2023-03-01T09:06:03;24.60;;;10.15;;
40254;SDS011;25973;52.368;4.940;2023-03-01T09:08:30;18.33;;;9.43;;
40254;SDS011;25973;52.368;4.940;2023-03-01T09:10:58;24.90;;;9.75;;
40254;SDS011;25973;52.368;4.940;2023-03-01T09:13:29;16.70;;;8.35;;
40254;SDS011;25973;52.368;4.940;2023-03-01T09:15:58;18.42;;;8.85;;
40254;SDS011;25973;52.368;4.940;2023-03-01T09:18:25;14.35;;;8.68;;
40254;SDS011;25973;52.368;4.940;2023-03-01T09:20:51;16.98;;;8.77;;
40254;SDS011;25973;52.368;4.940;2023-03-01T09:23:16;18.48;;;10.25;;
40254;SDS011;25973;52.368;4.940;2023-03-01T09:25:42;19.27;;;9.90;;
40254;SDS011;25973;52.368;4.940;2023-03-01T09:28:07;18.80;;;9.45;;
40254;SDS011;25973;52.368;4.940;2023-03-01T09:30:33;20.48;;;10.50;;
40254;SDS011;25973;52.368;4.940;2023-03-01T09:32:58;21.55;;;10.32;;
40254;SDS011;25973;52.368;4.940;2023-03-01T09:35:24;20.15;;;10.10;;
40254;SDS011;25973;52.368;4.940;2023-03-01T09:37:50;21.85;;;10.45;;
40254;SDS011;25973;52.368;4.940;2023-03-01T09:40:17;23.30;;;10.07;;
40254;SDS011;25973;52.368;4.940;2023-03-01T09:42:50;18.83;;;9.20;;
40254;SDS011;25973;52.368;4.940;2023-03-01T09:45:27;16.67;;;9.27;;
40254;SDS011;25973;52.368;4.940;2023-03-01T09:47:59;20.08;;;10.25;;
40254;SDS011;25973;52.368;4.940;2023-03-01T09:50:26;17.67;;;9.07;;
40254;SDS011;25973;52.368;4.940;2023-03-01T09:53:10;15.68;;;8.65;;
40254;SDS011;25973;52.368;4.940;2023-03-01T09:55:44;14.55;;;8.25;;
40254;SDS011;25973;52.368;4.940;2023-03-01T10:01:10;17.40;;;8.40;;
40254;SDS011;25973;52.368;4.940;2023-03-01T10:04:23;13.57;;;7.60;;
40254;SDS011;25973;52.368;4.940;2023-03-01T10:09:37;13.27;;;7.60;;
40254;SDS011;25973;52.368;4.940;2023-03-01T10:12:08;16.45;;;7.78;;
40254;SDS011;25973;52.368;4.940;2023-03-01T10:17:37;15.30;;;8.80;;
40254;SDS011;25973;52.368;4.940;2023-03-01T10:20:19;13.18;;;7.78;;
40254;SDS011;25973;52.368;4.940;2023-03-01T10:22:49;16.63;;;7.60;;
40254;SDS011;25973;52.368;4.940;2023-03-01T10:25:35;13.45;;;7.63;;
40254;SDS011;25973;52.368;4.940;2023-03-01T10:29:01;15.00;;;8.32;;
40254;SDS011;25973;52.368;4.940;2023-03-01T10:31:20;14.98;;;7.93;;
40254;SDS011;25973;52.368;4.940;2023-03-01T10:33:54;11.90;;;7.05;;
40254;SDS011;25973;52.368;4.940;2023-03-01T10:36:22;11.02;;;6.57;;
40254;SDS011;25973;52.368;4.940;2023-03-01T10:38:52;12.18;;;6.68;;
40254;SDS011;25973;52.368;4.940;2023-03-01T10:41:21;15.60;;;7.65;;
40254;SDS011;25973;52.368;4.940;2023-03-01T10:43:49;16.10;;;7.25;;
40254;SDS011;25973;52.368;4.940;2023-03-01T10:46:32;12.90;;;6.55;;
40254;SDS011;25973;52.368;4.940;2023-03-01T10:51:55;10.93;;;6.45;;
40254;SDS011;25973;52.368;4.940;2023-03-01T10:56:56;15.70;;;7.68;;
40254;SDS011;25973;52.368;4.940;2023-03-01T10:59:34;17.92;;;8.73;;
40254;SDS011;25973;52.368;4.940;2023-03-01T11:04:59;16.63;;;7.97;;
40254;SDS011;25973;52.368;4.940;2023-03-01T11:07:46;22.15;;;8.70;;
40254;SDS011;25973;52.368;4.940;2023-03-01T11:12:48;18.17;;;9.60;;
40254;SDS011;25973;52.368;4.940;2023-03-01T11:15:20;17.08;;;8.82;;
40254;SDS011;25973;52.368;4.940;2023-03-01T11:17:48;18.63;;;9.20;;
40254;SDS011;25973;52.368;4.940;2023-03-01T11:22:48;19.52;;;9.57;;
40254;SDS011;25973;52.368;4.940;2023-03-01T11:25:19;19.30;;;10.05;;
40254;SDS011;25973;52.368;4.940;2023-03-01T11:27:49;18.90;;;8.98;;
40254;SDS011;25973;52.368;4.940;2023-03-01T11:35:34;17.50;;;8.45;;
40254;SDS011;25973;52.368;4.940;2023-03-01T11:40:50;19.08;;;8.32;;
40254;SDS011;25973;52.368;4.940;2023-03-01T12:14:12;17.17;;;7.70;;
40254;SDS011;25973;52.368;4.940;2023-03-01T12:17:00;18.52;;;7.13;;
40254;SDS011;25973;52.368;4.940;2023-03-01T12:30:05;14.70;;;7.00;;
40254;SDS011;25973;52.368;4.940;2023-03-01T12:32:55;17.17;;;7.70;;
40254;SDS011;25973;52.368;4.940;2023-03-01T12:44:04;18.67;;;7.53;;
40254;SDS011;25973;52.368;4.940;2023-03-01T12:46:37;15.43;;;7.45;;
40254;SDS011;25973;52.368;4.940;2023-03-01T12:49:13;12.25;;;6.65;;
40254;SDS011;25973;52.368;4.940;2023-03-01T12:51:44;10.05;;;5.70;;
40254;SDS011;25973;52.368;4.940;2023-03-01T12:54:20;13.52;;;6.20;;
40254;SDS011;25973;52.368;4.940;2023-03-01T12:56:52;12.68;;;5.68;;
40254;SDS011;25973;52.368;4.940;2023-03-01T13:02:16;14.50;;;7.28;;
40254;SDS011;25973;52.368;4.940;2023-03-01T13:13:20;13.93;;;5.78;;
40254;SDS011;25973;52.368;4.940;2023-03-01T13:15:47;12.38;;;6.50;;
40254;SDS011;25973;52.368;4.940;2023-03-01T13:23:12;19.67;;;7.38;;
40254;SDS011;25973;52.368;4.940;2023-03-01T13:31:06;13.75;;;6.65;;
40254;SDS011;25973;52.368;4.940;2023-03-01T13:33:39;12.80;;;6.03;;
40254;SDS011;25973;52.368;4.940;2023-03-01T13:36:10;12.43;;;6.25;;
40254;SDS011;25973;52.368;4.940;2023-03-01T13:39:00;11.15;;;5.55;;
40254;SDS011;25973;52.368;4.940;2023-03-01T13:44:13;11.27;;;5.05;;
40254;SDS011;25973;52.368;4.940;2023-03-01T13:46:55;16.98;;;5.72;;
40254;SDS011;25973;52.368;4.940;2023-03-01T13:49:25;15.17;;;4.93;;
40254;SDS011;25973;52.368;4.940;2023-03-01T13:51:53;14.73;;;6.70;;
40254;SDS011;25973;52.368;4.940;2023-03-01T13:54:26;11.65;;;5.10;;
40254;SDS011;25973;52.368;4.940;2023-03-01T13:56:56;14.35;;;5.10;;
40254;SDS011;25973;52.368;4.940;2023-03-01T13:59:24;11.32;;;4.55;;
40254;SDS011;25973;52.368;4.940;2023-03-01T14:01:58;14.43;;;5.70;;
40254;SDS011;25973;52.368;4.940;2023-03-01T14:04:29;12.50;;;5.47;;
40254;SDS011;25973;52.368;4.940;2023-03-01T14:07:10;13.23;;;6.32;;
40254;SDS011;25973;52.368;4.940;2023-03-01T14:10:03;14.32;;;7.22;;
40254;SDS011;25973;52.368;4.940;2023-03-01T14:12:45;18.85;;;6.68;;
40254;SDS011;25973;52.368;4.940;2023-03-01T14:15:22;17.02;;;7.57;;
40254;SDS011;25973;52.368;4.940;2023-03-01T14:18:15;16.42;;;7.78;;
40254;SDS011;25973;52.368;4.940;2023-03-01T14:20:47;17.37;;;7.73;;
40254;SDS011;25973;52.368;4.940;2023-03-01T14:23:17;19.88;;;6.93;;
40254;SDS011;25973;52.368;4.940;2023-03-01T14:25:46;15.85;;;6.72;;
40254;SDS011;25973;52.368;4.940;2023-03-01T14:30:46;15.88;;;6.75;;
40254;SDS011;25973;52.368;4.940;2023-03-01T14:33:24;12.60;;;5.55;;
40254;SDS011;25973;52.368;4.940;2023-03-01T14:35:54;10.90;;;5.20;;
40254;SDS011;25973;52.368;4.940;2023-03-01T14:38:31;9.13;;;4.82;;
40254;SDS011;25973;52.368;4.940;2023-03-01T14:41:01;12.95;;;5.70;;
40254;SDS011;25973;52.368;4.940;2023-03-01T14:43:32;9.30;;;4.78;;
40254;SDS011;25973;52.368;4.940;2023-03-01T14:45:58;10.73;;;5.30;;
40254;SDS011;25973;52.368;4.940;2023-03-01T14:48:24;10.48;;;5.07;;
40254;SDS011;25973;52.368;4.940;2023-03-01T14:50:51;10.35;;;5.03;;
40254;SDS011;25973;52.368;4.940;2023-03-01T14:53:27;12.50;;;4.45;;
40254;SDS011;25973;52.368;4.940;2023-03-01T14:55:55;16.23;;;5.03;;
40254;SDS011;25973;52.368;4.940;2023-03-01T14:58:25;7.95;;;3.72;;
40254;SDS011;25973;52.368;4.940;2023-03-01T15:01:10;11.73;;;4.72;;
40254;SDS011;25973;52.368;4.940;2023-03-01T15:03:41;9.27;;;3.53;;
40254;SDS011;25973;52.368;4.940;2023-03-01T15:06:09;7.78;;;3.75;;
40254;SDS011;25973;52.368;4.940;2023-03-01T15:08:41;6.32;;;3.05;;
40254;SDS011;25973;52.368;4.940;2023-03-01T15:11:22;9.63;;;3.80;;
40254;SDS011;25973;52.368;4.940;2023-03-01T15:13:49;8.50;;;3.38;;
40254;SDS011;25973;52.368;4.940;2023-03-01T15:19:01;6.82;;;3.15;;
40254;SDS011;25973;52.368;4.940;2023-03-01T15:21:35;6.05;;;2.90;;
40254;SDS011;25973;52.368;4.940;2023-03-01T15:24:06;6.25;;;3.53;;
40254;SDS011;25973;52.368;4.940;2023-03-01T15:26:49;8.20;;;3.50;;
40254;SDS011;25973;52.368;4.940;2023-03-01T15:29:20;7.03;;;3.05;;
40254;SDS011;25973;52.368;4.940;2023-03-01T15:31:54;8.15;;;3.30;;
40254;SDS011;25973;52.368;4.940;2023-03-01T15:34:25;7.80;;;3.70;;
40254;SDS011;25973;52.368;4.940;2023-03-01T15:36:57;7.20;;;4.05;;
40254;SDS011;25973;52.368;4.940;2023-03-01T15:39:32;8.35;;;3.15;;
40254;SDS011;25973;52.368;4.940;2023-03-01T15:42:02;9.13;;;3.53;;
40254;SDS011;25973;52.368;4.940;2023-03-01T15:44:36;7.97;;;3.20;;
40254;SDS011;25973;52.368;4.940;2023-03-01T15:47:06;8.13;;;3.45;;
40254;SDS011;25973;52.368;4.940;2023-03-01T15:49:53;6.18;;;3.10;;
40254;SDS011;25973;52.368;4.940;2023-03-01T15:52:27;6.68;;;3.90;;
40254;SDS011;25973;52.368;4.940;2023-03-01T15:54:57;9.23;;;3.67;;
40254;SDS011;25973;52.368;4.940;2023-03-01T15:57:24;6.90;;;3.90;;
40254;SDS011;25973;52.368;4.940;2023-03-01T15:59:50;6.38;;;3.30;;
40254;SDS011;25973;52.368;4.940;2023-03-01T16:02:15;6.78;;;3.05;;
40254;SDS011;25973;52.368;4.940;2023-03-01T16:04:41;7.25;;;3.83;;
40254;SDS011;25973;52.368;4.940;2023-03-01T16:07:08;6.00;;;3.30;;
40254;SDS011;25973;52.368;4.940;2023-03-01T16:09:34;6.65;;;3.50;;
40254;SDS011;25973;52.368;4.940;2023-03-01T16:12:03;7.78;;;3.65;;
40254;SDS011;25973;52.368;4.940;2023-03-01T16:14:30;7.25;;;4.00;;
40254;SDS011;25973;52.368;4.940;2023-03-01T16:16:55;8.88;;;3.20;;
40254;SDS011;25973;52.368;4.940;2023-03-01T16:19:21;6.25;;;3.33;;
40254;SDS011;25973;52.368;4.940;2023-03-01T16:21:47;7.93;;;3.25;;
40254;SDS011;25973;52.368;4.940;2023-03-01T16:24:14;6.75;;;3.45;;
40254;SDS011;25973;52.368;4.940;2023-03-01T16:26:39;5.90;;;3.28;;
40254;SDS011;25973;52.368;4.940;2023-03-01T16:29:05;5.35;;;3.05;;
40254;SDS011;25973;52.368;4.940;2023-03-01T16:31:31;6.10;;;3.00;;
40254;SDS011;25973;52.368;4.940;2023-03-01T16:33:57;8.55;;;3.22;;
40254;SDS011;25973;52.368;4.940;2023-03-01T16:36:25;6.18;;;2.97;;
40254;SDS011;25973;52.368;4.940;2023-03-01T16:38:53;13.45;;;3.75;;
40254;SDS011;25973;52.368;4.940;2023-03-01T16:41:21;7.10;;;3.30;;
40254;SDS011;25973;52.368;4.940;2023-03-01T16:43:48;8.43;;;3.58;;
40254;SDS011;25973;52.368;4.940;2023-03-01T16:46:15;7.75;;;4.07;;